sensor_id;sensor_type;location;lat;lon;timestamp;temperature;humidity
44223;DHT22;29895;48.804;9.386;2022-08-19T02:26:14;20.70;99.90
44223;DHT22;29895;48.804;9.386;2022-08-19T02:28:42;20.70;99.90
44223;DHT22;29895;48.804;9.386;2022-08-19T02:31:09;20.70;99.90
44223;DHT22;29895;48.804;9.386;2022-08-19T02:33:36;20.70;99.90
44223;DHT22;29895;48.804;9.386;2022-08-19T02:36:05;20.70;99.90
44223;DHT22;29895;48.804;9.386;2022-08-19T02:38:32;20.70;99.90
44223;DHT22;29895;48.804;9.386;2022-08-19T02:40:59;20.70;99.90
44223;DHT22;29895;48.804;9.386;2022-08-19T02:43:26;20.70;99.90
44223;DHT22;29895;48.804;9.386;2022-08-19T02:45:53;20.60;99.90
44223;DHT22;29895;48.804;9.386;2022-08-19T02:48:20;20.60;99.90
44223;DHT22;29895;48.804;9.386;2022-08-19T02:50:48;20.60;99.90
44223;DHT22;29895;48.804;9.386;2022-08-19T02:53:20;20.60;99.90
44223;DHT22;29895;48.804;9.386;2022-08-19T02:55:49;20.50;99.90
44223;DHT22;29895;48.804;9.386;2022-08-19T02:58:14;20.60;99.90
44223;DHT22;29895;48.804;9.386;2022-08-19T03:00:42;20.60;99.90
44223;DHT22;29895;48.804;9.386;2022-08-19T03:03:08;20.60;99.90
44223;DHT22;29895;48.804;9.386;2022-08-19T03:05:36;20.60;99.90
44223;DHT22;29895;48.804;9.386;2022-08-19T03:08:02;20.60;99.90
44223;DHT22;29895;48.804;9.386;2022-08-19T03:10:28;20.60;99.90
44223;DHT22;29895;48.804;9.386;2022-08-19T03:12:54;20.60;99.90
44223;DHT22;29895;48.804;9.386;2022-08-19T03:15:20;20.60;99.90
44223;DHT22;29895;48.804;9.386;2022-08-19T03:17:47;20.60;99.90
44223;DHT22;29895;48.804;9.386;2022-08-19T03:20:12;20.50;99.90
44223;DHT22;29895;48.804;9.386;2022-08-19T03:22:38;20.40;99.90
44223;DHT22;29895;48.804;9.386;2022-08-19T03:25:04;20.40;99.90
44223;DHT22;29895;48.804;9.386;2022-08-19T03:27:29;20.40;99.90
44223;DHT22;29895;48.804;9.386;2022-08-19T05:54:55;20.30;99.90
44223;DHT22;29895;48.804;9.386;2022-08-19T05:57:21;20.30;99.90
44223;DHT22;29895;48.804;9.386;2022-08-19T05:59:48;20.30;99.90
44223;DHT22;29895;48.804;9.386;2022-08-19T06:02:16;20.30;99.90
44223;DHT22;29895;48.804;9.386;2022-08-19T06:04:43;20.30;99.90
44223;DHT22;29895;48.804;9.386;2022-08-19T06:07:08;20.30;99.90
44223;DHT22;29895;48.804;9.386;2022-08-19T06:09:34;20.30;99.90
44223;DHT22;29895;48.804;9.386;2022-08-19T06:12:01;20.30;99.90
44223;DHT22;29895;48.804;9.386;2022-08-19T06:14:29;20.30;99.90
44223;DHT22;29895;48.804;9.386;2022-08-19T06:16:55;20.40;99.90
44223;DHT22;29895;48.804;9.386;2022-08-19T06:19:22;20.40;99.90
44223;DHT22;29895;48.804;9.386;2022-08-19T06:21:50;20.40;99.90
44223;DHT22;29895;48.804;9.386;2022-08-19T06:24:19;20.50;99.90
44223;DHT22;29895;48.804;9.386;2022-08-19T06:26:45;20.50;99.90
44223;DHT22;29895;48.804;9.386;2022-08-19T06:29:12;20.50;99.90
44223;DHT22;29895;48.804;9.386;2022-08-19T06:31:44;20.50;99.90
44223;DHT22;29895;48.804;9.386;2022-08-19T06:34:10;20.60;99.90
44223;DHT22;29895;48.804;9.386;2022-08-19T06:36:37;20.60;99.90
44223;DHT22;29895;48.804;9.386;2022-08-19T06:39:08;20.60;99.90
44223;DHT22;29895;48.804;9.386;2022-08-19T06:41:35;20.50;99.90
44223;DHT22;29895;48.804;9.386;2022-08-19T06:44:02;20.50;99.90
44223;DHT22;29895;48.804;9.386;2022-08-19T06:46:30;20.40;99.90
44223;DHT22;29895;48.804;9.386;2022-08-19T06:48:56;20.50;99.90
44223;DHT22;29895;48.804;9.386;2022-08-19T06:51:22;20.40;99.90
44223;DHT22;29895;48.804;9.386;2022-08-19T06:53:49;20.40;99.90
44223;DHT22;29895;48.804;9.386;2022-08-19T06:56:19;20.30;99.90
44223;DHT22;29895;48.804;9.386;2022-08-19T06:58:46;20.10;99.90
44223;DHT22;29895;48.804;9.386;2022-08-19T07:01:26;20.10;99.90
44223;DHT22;29895;48.804;9.386;2022-08-19T07:03:53;19.90;99.90
44223;DHT22;29895;48.804;9.386;2022-08-19T07:06:18;19.80;99.90
44223;DHT22;29895;48.804;9.386;2022-08-19T07:08:45;19.70;99.90
44223;DHT22;29895;48.804;9.386;2022-08-19T07:11:12;19.60;99.90
44223;DHT22;29895;48.804;9.386;2022-08-19T07:13:39;19.50;99.90
44223;DHT22;29895;48.804;9.386;2022-08-19T07:16:08;19.40;99.90
44223;DHT22;29895;48.804;9.386;2022-08-19T07:18:36;19.40;99.90
44223;DHT22;29895;48.804;9.386;2022-08-19T07:21:08;19.40;99.90
44223;DHT22;29895;48.804;9.386;2022-08-19T07:23:34;19.30;99.90
44223;DHT22;29895;48.804;9.386;2022-08-19T07:26:33;19.40;99.90
44223;DHT22;29895;48.804;9.386;2022-08-19T07:28:51;19.40;99.90
44223;DHT22;29895;48.804;9.386;2022-08-19T07:31:18;19.50;99.90
44223;DHT22;29895;48.804;9.386;2022-08-19T07:33:45;19.50;99.90
44223;DHT22;29895;48.804;9.386;2022-08-19T07:36:13;19.50;99.90
44223;DHT22;29895;48.804;9.386;2022-08-19T07:38:41;19.50;99.90
44223;DHT22;29895;48.804;9.386;2022-08-19T07:41:09;19.50;99.90
44223;DHT22;29895;48.804;9.386;2022-08-19T07:43:35;19.60;99.90
44223;DHT22;29895;48.804;9.386;2022-08-19T07:46:01;19.60;99.90
44223;DHT22;29895;48.804;9.386;2022-08-19T07:48:28;19.70;99.90
44223;DHT22;29895;48.804;9.386;2022-08-19T07:50:55;19.70;99.90
44223;DHT22;29895;48.804;9.386;2022-08-19T07:53:22;19.80;99.90
44223;DHT22;29895;48.804;9.386;2022-08-19T07:55:48;19.90;99.90
44223;DHT22;29895;48.804;9.386;2022-08-19T07:58:19;20.00;99.90
44223;DHT22;29895;48.804;9.386;2022-08-19T08:00:45;20.00;99.90
44223;DHT22;29895;48.804;9.386;2022-08-19T08:03:12;20.10;99.90
44223;DHT22;29895;48.804;9.386;2022-08-19T08:05:37;20.10;99.90
44223;DHT22;29895;48.804;9.386;2022-08-19T08:08:21;20.20;99.90
44223;DHT22;29895;48.804;9.386;2022-08-19T08:11:07;20.10;99.90
44223;DHT22;29895;48.804;9.386;2022-08-19T08:13:33;20.20;99.90
44223;DHT22;29895;48.804;9.386;2022-08-19T08:16:00;20.20;99.90
44223;DHT22;29895;48.804;9.386;2022-08-19T08:18:26;20.10;99.90
44223;DHT22;29895;48.804;9.386;2022-08-19T08:20:52;20.10;99.90
44223;DHT22;29895;48.804;9.386;2022-08-19T08:23:18;20.10;99.90
44223;DHT22;29895;48.804;9.386;2022-08-19T08:25:55;20.20;99.90
44223;DHT22;29895;48.804;9.386;2022-08-19T08:28:21;20.20;99.90
44223;DHT22;29895;48.804;9.386;2022-08-19T08:30:47;20.20;99.90
44223;DHT22;29895;48.804;9.386;2022-08-19T08:33:14;20.20;99.90
44223;DHT22;29895;48.804;9.386;2022-08-19T08:35:42;20.20;99.90
44223;DHT22;29895;48.804;9.386;2022-08-19T08:38:07;20.30;99.90
44223;DHT22;29895;48.804;9.386;2022-08-19T08:45:38;20.50;99.90
44223;DHT22;29895;48.804;9.386;2022-08-19T08:48:14;20.50;99.90
44223;DHT22;29895;48.804;9.386;2022-08-19T08:50:42;20.60;99.90
44223;DHT22;29895;48.804;9.386;2022-08-19T08:53:08;20.70;99.90
44223;DHT22;29895;48.804;9.386;2022-08-19T08:55:35;20.80;99.90
44223;DHT22;29895;48.804;9.386;2022-08-19T08:58:03;20.80;99.90
44223;DHT22;29895;48.804;9.386;2022-08-19T09:00:32;20.80;99.90
44223;DHT22;29895;48.804;9.386;2022-08-19T09:02:59;20.80;99.90
44223;DHT22;29895;48.804;9.386;2022-08-19T09:05:52;20.80;99.90
44223;DHT22;29895;48.804;9.386;2022-08-19T09:08:22;20.80;99.90
44223;DHT22;29895;48.804;9.386;2022-08-19T09:10:55;20.70;99.90
44223;DHT22;29895;48.804;9.386;2022-08-19T09:13:44;20.70;99.90
44223;DHT22;29895;48.804;9.386;2022-08-19T09:16:25;20.70;99.90
44223;DHT22;29895;48.804;9.386;2022-08-19T09:18:55;20.60;99.90
44223;DHT22;29895;48.804;9.386;2022-08-19T09:21:23;20.50;99.90
44223;DHT22;29895;48.804;9.386;2022-08-19T09:23:51;20.50;99.90
44223;DHT22;29895;48.804;9.386;2022-08-19T09:26:17;20.50;99.90
44223;DHT22;29895;48.804;9.386;2022-08-19T09:28:44;20.50;99.90
44223;DHT22;29895;48.804;9.386;2022-08-19T09:31:10;20.50;99.90
44223;DHT22;29895;48.804;9.386;2022-08-19T09:33:37;20.50;99.90
44223;DHT22;29895;48.804;9.386;2022-08-19T09:36:08;20.60;99.90
44223;DHT22;29895;48.804;9.386;2022-08-19T09:38:34;20.70;99.90
44223;DHT22;29895;48.804;9.386;2022-08-19T09:41:03;20.70;99.90
44223;DHT22;29895;48.804;9.386;2022-08-19T09:43:31;20.70;99.90
44223;DHT22;29895;48.804;9.386;2022-08-19T09:45:57;20.80;99.90
44223;DHT22;29895;48.804;9.386;2022-08-19T09:48:24;20.80;99.90
44223;DHT22;29895;48.804;9.386;2022-08-19T09:50:49;20.70;99.90
44223;DHT22;29895;48.804;9.386;2022-08-19T09:53:16;20.70;99.90
44223;DHT22;29895;48.804;9.386;2022-08-19T09:55:42;20.70;99.90
44223;DHT22;29895;48.804;9.386;2022-08-19T09:58:07;20.70;99.90
44223;DHT22;29895;48.804;9.386;2022-08-19T10:00:33;20.70;99.90
44223;DHT22;29895;48.804;9.386;2022-08-19T10:02:59;20.60;99.90
44223;DHT22;29895;48.804;9.386;2022-08-19T10:05:24;20.60;99.90
44223;DHT22;29895;48.804;9.386;2022-08-19T10:08:13;20.70;99.90
44223;DHT22;29895;48.804;9.386;2022-08-19T10:10:40;20.80;99.90
44223;DHT22;29895;48.804;9.386;2022-08-19T10:13:08;20.80;99.90
44223;DHT22;29895;48.804;9.386;2022-08-19T10:15:34;20.80;99.90
44223;DHT22;29895;48.804;9.386;2022-08-19T10:18:00;20.80;99.90
44223;DHT22;29895;48.804;9.386;2022-08-19T10:20:25;20.90;99.90
44223;DHT22;29895;48.804;9.386;2022-08-19T10:22:51;20.90;99.90
44223;DHT22;29895;48.804;9.386;2022-08-19T10:25:17;21.00;99.90
44223;DHT22;29895;48.804;9.386;2022-08-19T10:27:42;21.00;99.90
44223;DHT22;29895;48.804;9.386;2022-08-19T10:30:08;21.00;99.90
44223;DHT22;29895;48.804;9.386;2022-08-19T10:32:35;21.00;99.90
44223;DHT22;29895;48.804;9.386;2022-08-19T10:35:01;21.00;99.90
44223;DHT22;29895;48.804;9.386;2022-08-19T10:37:27;21.00;99.90
44223;DHT22;29895;48.804;9.386;2022-08-19T10:39:52;21.00;99.90
44223;DHT22;29895;48.804;9.386;2022-08-19T10:42:18;21.10;99.90
44223;DHT22;29895;48.804;9.386;2022-08-19T10:44:44;21.20;99.90
44223;DHT22;29895;48.804;9.386;2022-08-19T10:47:10;21.30;99.90
44223;DHT22;29895;48.804;9.386;2022-08-19T10:49:35;21.40;99.90
44223;DHT22;29895;48.804;9.386;2022-08-19T10:52:21;21.50;99.90
44223;DHT22;29895;48.804;9.386;2022-08-19T10:55:03;21.40;99.90
44223;DHT22;29895;48.804;9.386;2022-08-19T10:57:47;21.40;99.90
44223;DHT22;29895;48.804;9.386;2022-08-19T11:00:13;21.40;99.90
44223;DHT22;29895;48.804;9.386;2022-08-19T11:02:39;21.30;99.90
44223;DHT22;29895;48.804;9.386;2022-08-19T11:05:05;21.30;99.90
44223;DHT22;29895;48.804;9.386;2022-08-19T11:07:32;21.30;99.90
44223;DHT22;29895;48.804;9.386;2022-08-19T11:09:57;21.30;99.90
44223;DHT22;29895;48.804;9.386;2022-08-19T11:12:23;21.30;99.90
44223;DHT22;29895;48.804;9.386;2022-08-19T11:14:50;21.30;99.90
44223;DHT22;29895;48.804;9.386;2022-08-19T11:17:16;21.20;99.90
44223;DHT22;29895;48.804;9.386;2022-08-19T11:19:41;21.20;99.90
44223;DHT22;29895;48.804;9.386;2022-08-19T11:22:09;21.20;99.90
44223;DHT22;29895;48.804;9.386;2022-08-19T11:24:36;21.20;99.90
44223;DHT22;29895;48.804;9.386;2022-08-19T11:27:08;21.20;99.90
44223;DHT22;29895;48.804;9.386;2022-08-19T11:29:34;21.20;99.90
44223;DHT22;29895;48.804;9.386;2022-08-19T11:32:03;21.10;99.90
44223;DHT22;29895;48.804;9.386;2022-08-19T11:34:28;21.10;99.90
44223;DHT22;29895;48.804;9.386;2022-08-19T11:36:55;21.00;99.90
44223;DHT22;29895;48.804;9.386;2022-08-19T11:39:25;21.00;99.90
44223;DHT22;29895;48.804;9.386;2022-08-19T11:41:51;21.00;99.90
44223;DHT22;29895;48.804;9.386;2022-08-19T11:44:17;21.00;99.90
44223;DHT22;29895;48.804;9.386;2022-08-19T11:46:45;21.00;99.90
44223;DHT22;29895;48.804;9.386;2022-08-19T11:49:34;21.10;99.90
44223;DHT22;29895;48.804;9.386;2022-08-19T11:52:01;21.10;99.90
44223;DHT22;29895;48.804;9.386;2022-08-19T11:54:27;21.10;99.90
44223;DHT22;29895;48.804;9.386;2022-08-19T11:56:52;21.10;99.90
44223;DHT22;29895;48.804;9.386;2022-08-19T11:59:18;21.20;99.90
44223;DHT22;29895;48.804;9.386;2022-08-19T12:01:43;21.20;99.90
44223;DHT22;29895;48.804;9.386;2022-08-19T12:04:09;21.20;99.90
44223;DHT22;29895;48.804;9.386;2022-08-19T12:06:37;21.30;99.90
44223;DHT22;29895;48.804;9.386;2022-08-19T12:09:04;21.30;99.90
44223;DHT22;29895;48.804;9.386;2022-08-19T12:11:30;21.40;99.90
44223;DHT22;29895;48.804;9.386;2022-08-19T12:13:56;21.40;99.90
44223;DHT22;29895;48.804;9.386;2022-08-19T12:16:23;21.50;99.90
44223;DHT22;29895;48.804;9.386;2022-08-19T12:18:49;21.40;99.90
44223;DHT22;29895;48.804;9.386;2022-08-19T12:21:16;21.40;99.90
44223;DHT22;29895;48.804;9.386;2022-08-19T12:23:42;21.30;99.90
44223;DHT22;29895;48.804;9.386;2022-08-19T12:26:10;21.20;99.90
44223;DHT22;29895;48.804;9.386;2022-08-19T12:28:36;21.20;99.90
44223;DHT22;29895;48.804;9.386;2022-08-19T12:31:01;21.20;99.90
44223;DHT22;29895;48.804;9.386;2022-08-19T12:33:27;21.10;99.90
44223;DHT22;29895;48.804;9.386;2022-08-19T12:35:54;21.10;99.90
44223;DHT22;29895;48.804;9.386;2022-08-19T12:38:20;21.10;99.90
44223;DHT22;29895;48.804;9.386;2022-08-19T12:40:48;21.10;99.90
44223;DHT22;29895;48.804;9.386;2022-08-19T12:43:15;21.20;99.90
44223;DHT22;29895;48.804;9.386;2022-08-19T12:45:41;21.20;99.90
44223;DHT22;29895;48.804;9.386;2022-08-19T12:48:08;21.20;99.90
44223;DHT22;29895;48.804;9.386;2022-08-19T12:50:33;21.10;99.90
44223;DHT22;29895;48.804;9.386;2022-08-19T12:52:59;21.00;99.90
44223;DHT22;29895;48.804;9.386;2022-08-19T12:55:24;20.90;99.90
44223;DHT22;29895;48.804;9.386;2022-08-19T12:57:50;20.90;99.90
44223;DHT22;29895;48.804;9.386;2022-08-19T13:00:16;20.90;99.90
44223;DHT22;29895;48.804;9.386;2022-08-19T13:02:43;20.90;99.90
44223;DHT22;29895;48.804;9.386;2022-08-19T13:05:11;20.90;99.90
44223;DHT22;29895;48.804;9.386;2022-08-19T13:07:37;20.80;99.90
44223;DHT22;29895;48.804;9.386;2022-08-19T13:10:04;20.80;99.90
44223;DHT22;29895;48.804;9.386;2022-08-19T13:12:30;20.80;99.90
44223;DHT22;29895;48.804;9.386;2022-08-19T13:14:55;20.80;99.90
44223;DHT22;29895;48.804;9.386;2022-08-19T13:17:21;20.90;99.90
44223;DHT22;29895;48.804;9.386;2022-08-19T13:19:47;20.70;99.90
44223;DHT22;29895;48.804;9.386;2022-08-19T13:22:12;20.70;99.90
44223;DHT22;29895;48.804;9.386;2022-08-19T13:24:38;20.60;99.90
44223;DHT22;29895;48.804;9.386;2022-08-19T13:27:04;20.50;99.90
44223;DHT22;29895;48.804;9.386;2022-08-19T13:29:29;20.40;99.90
44223;DHT22;29895;48.804;9.386;2022-08-19T13:32:13;20.30;99.90
44223;DHT22;29895;48.804;9.386;2022-08-19T13:34:58;20.20;99.90
44223;DHT22;29895;48.804;9.386;2022-08-19T13:37:23;20.20;99.90
44223;DHT22;29895;48.804;9.386;2022-08-19T13:40:07;20.20;99.90
44223;DHT22;29895;48.804;9.386;2022-08-19T13:42:38;20.20;99.90
44223;DHT22;29895;48.804;9.386;2022-08-19T13:45:04;20.20;99.90
44223;DHT22;29895;48.804;9.386;2022-08-19T13:47:31;20.20;99.90
44223;DHT22;29895;48.804;9.386;2022-08-19T13:50:00;20.10;99.90
44223;DHT22;29895;48.804;9.386;2022-08-19T13:52:25;20.10;99.90
44223;DHT22;29895;48.804;9.386;2022-08-19T13:54:51;20.00;99.90
44223;DHT22;29895;48.804;9.386;2022-08-19T13:57:16;20.00;99.90
44223;DHT22;29895;48.804;9.386;2022-08-19T13:59:42;19.90;99.90
44223;DHT22;29895;48.804;9.386;2022-08-19T14:02:07;19.90;99.90
44223;DHT22;29895;48.804;9.386;2022-08-19T14:04:33;20.00;99.90
44223;DHT22;29895;48.804;9.386;2022-08-19T14:06:59;20.00;99.90
44223;DHT22;29895;48.804;9.386;2022-08-19T14:09:24;20.00;99.90
44223;DHT22;29895;48.804;9.386;2022-08-19T14:11:49;20.10;99.90
44223;DHT22;29895;48.804;9.386;2022-08-19T14:14:16;20.20;99.90
44223;DHT22;29895;48.804;9.386;2022-08-19T14:16:41;20.20;99.90
44223;DHT22;29895;48.804;9.386;2022-08-19T14:19:07;20.30;99.90
44223;DHT22;29895;48.804;9.386;2022-08-19T14:21:33;20.20;99.90
44223;DHT22;29895;48.804;9.386;2022-08-19T14:23:59;20.30;99.90
44223;DHT22;29895;48.804;9.386;2022-08-19T14:26:25;20.30;99.90
44223;DHT22;29895;48.804;9.386;2022-08-19T14:28:51;20.40;99.90
44223;DHT22;29895;48.804;9.386;2022-08-19T14:31:18;20.50;99.90
44223;DHT22;29895;48.804;9.386;2022-08-19T14:33:47;20.60;99.90
44223;DHT22;29895;48.804;9.386;2022-08-19T14:36:13;20.60;99.90
44223;DHT22;29895;48.804;9.386;2022-08-19T14:38:39;20.70;99.90
44223;DHT22;29895;48.804;9.386;2022-08-19T14:41:16;20.70;99.90
44223;DHT22;29895;48.804;9.386;2022-08-19T14:43:42;20.70;99.90
44223;DHT22;29895;48.804;9.386;2022-08-19T14:46:11;20.60;99.90
44223;DHT22;29895;48.804;9.386;2022-08-19T14:48:37;20.50;99.90
44223;DHT22;29895;48.804;9.386;2022-08-19T14:51:04;20.30;99.90
44223;DHT22;29895;48.804;9.386;2022-08-19T14:53:31;20.30;99.90
44223;DHT22;29895;48.804;9.386;2022-08-19T14:55:58;20.20;99.90
44223;DHT22;29895;48.804;9.386;2022-08-19T14:58:24;20.30;99.90
44223;DHT22;29895;48.804;9.386;2022-08-19T15:00:50;20.20;99.90
44223;DHT22;29895;48.804;9.386;2022-08-19T15:03:15;20.20;99.90
44223;DHT22;29895;48.804;9.386;2022-08-19T15:05:41;20.10;99.90
44223;DHT22;29895;48.804;9.386;2022-08-19T15:08:09;20.20;99.90
44223;DHT22;29895;48.804;9.386;2022-08-19T15:13:49;20.20;99.90
44223;DHT22;29895;48.804;9.386;2022-08-19T15:16:35;20.20;99.90
44223;DHT22;29895;48.804;9.386;2022-08-19T15:19:24;20.20;99.90
